sensor_id;sensor_type;location;lat;lon;timestamp;P1;durP1;ratioP1;P2;durP2;ratioP2
7833;SDS011;3962;42.696;23.354;2023-12-20T00:02:05;35.00;;;33.23;;
7833;SDS011;3962;42.696;23.354;2023-12-20T00:04:32;37.07;;;35.27;;
7833;SDS011;3962;42.696;23.354;2023-12-20T00:06:59;35.23;;;33.53;;
7833;SDS011;3962;42.696;23.354;2023-12-20T00:09:26;34.70;;;33.00;;
7833;SDS011;3962;42.696;23.354;2023-12-20T00:11:53;35.37;;;33.60;;
7833;SDS011;3962;42.696;23.354;2023-12-20T00:14:20;35.47;;;33.67;;
7833;SDS011;3962;42.696;23.354;2023-12-20T00:16:47;34.90;;;33.20;;
7833;SDS011;3962;42.696;23.354;2023-12-20T00:19:15;34.73;;;33.03;;
7833;SDS011;3962;42.696;23.354;2023-12-20T00:21:42;34.27;;;32.57;;
7833;SDS011;3962;42.696;23.354;2023-12-20T00:24:09;36.40;;;34.60;;
7833;SDS011;3962;42.696;23.354;2023-12-20T00:26:36;35.67;;;33.93;;
7833;SDS011;3962;42.696;23.354;2023-12-20T00:29:03;35.90;;;34.10;;
7833;SDS011;3962;42.696;23.354;2023-12-20T00:31:30;39.27;;;37.27;;
7833;SDS011;3962;42.696;23.354;2023-12-20T00:33:57;37.43;;;35.53;;
7833;SDS011;3962;42.696;23.354;2023-12-20T00:36:25;38.10;;;36.20;;
7833;SDS011;3962;42.696;23.354;2023-12-20T00:38:52;40.83;;;38.73;;
7833;SDS011;3962;42.696;23.354;2023-12-20T00:41:19;41.17;;;38.97;;
7833;SDS011;3962;42.696;23.354;2023-12-20T00:43:46;41.63;;;39.43;;
7833;SDS011;3962;42.696;23.354;2023-12-20T00:46:13;39.43;;;37.43;;
7833;SDS011;3962;42.696;23.354;2023-12-20T00:48:40;40.97;;;38.80;;
7833;SDS011;3962;42.696;23.354;2023-12-20T00:51:07;43.13;;;40.73;;
7833;SDS011;3962;42.696;23.354;2023-12-20T00:53:35;49.23;;;45.93;;
7833;SDS011;3962;42.696;23.354;2023-12-20T00:56:02;50.60;;;47.07;;
7833;SDS011;3962;42.696;23.354;2023-12-20T00:58:30;48.07;;;43.97;;
7833;SDS011;3962;42.696;23.354;2023-12-20T01:00:57;41.50;;;39.03;;
7833;SDS011;3962;42.696;23.354;2023-12-20T01:03:24;50.60;;;46.93;;
7833;SDS011;3962;42.696;23.354;2023-12-20T01:05:51;47.77;;;44.27;;
7833;SDS011;3962;42.696;23.354;2023-12-20T01:08:18;41.77;;;39.57;;
7833;SDS011;3962;42.696;23.354;2023-12-20T01:10:47;40.70;;;38.43;;
7833;SDS011;3962;42.696;23.354;2023-12-20T01:13:13;43.53;;;41.03;;
7833;SDS011;3962;42.696;23.354;2023-12-20T01:15:39;41.33;;;39.00;;
7833;SDS011;3962;42.696;23.354;2023-12-20T01:18:06;42.10;;;39.77;;
7833;SDS011;3962;42.696;23.354;2023-12-20T01:20:33;39.70;;;37.67;;
7833;SDS011;3962;42.696;23.354;2023-12-20T01:23:01;36.37;;;34.53;;
7833;SDS011;3962;42.696;23.354;2023-12-20T01:25:28;35.57;;;33.80;;
7833;SDS011;3962;42.696;23.354;2023-12-20T01:27:56;33.87;;;32.20;;
7833;SDS011;3962;42.696;23.354;2023-12-20T01:30:23;34.63;;;32.93;;
7833;SDS011;3962;42.696;23.354;2023-12-20T01:32:50;33.57;;;31.90;;
7833;SDS011;3962;42.696;23.354;2023-12-20T01:35:17;35.67;;;33.87;;
7833;SDS011;3962;42.696;23.354;2023-12-20T01:37:44;31.77;;;30.23;;
7833;SDS011;3962;42.696;23.354;2023-12-20T01:40:11;36.10;;;34.30;;
7833;SDS011;3962;42.696;23.354;2023-12-20T01:42:38;34.30;;;32.60;;
7833;SDS011;3962;42.696;23.354;2023-12-20T01:45:07;35.67;;;33.87;;
7833;SDS011;3962;42.696;23.354;2023-12-20T01:47:34;35.67;;;33.87;;
7833;SDS011;3962;42.696;23.354;2023-12-20T01:50:02;35.43;;;33.73;;
7833;SDS011;3962;42.696;23.354;2023-12-20T01:52:30;34.63;;;32.83;;
7833;SDS011;3962;42.696;23.354;2023-12-20T01:54:58;38.10;;;36.13;;
7833;SDS011;3962;42.696;23.354;2023-12-20T01:57:28;36.17;;;34.30;;
7833;SDS011;3962;42.696;23.354;2023-12-20T01:59:55;40.57;;;38.07;;
7833;SDS011;3962;42.696;23.354;2023-12-20T02:02:24;43.87;;;40.93;;
7833;SDS011;3962;42.696;23.354;2023-12-20T02:04:53;39.23;;;36.93;;
7833;SDS011;3962;42.696;23.354;2023-12-20T02:07:20;40.97;;;38.37;;
7833;SDS011;3962;42.696;23.354;2023-12-20T02:09:48;40.50;;;37.72;;
7833;SDS011;3962;42.696;23.354;2023-12-20T02:12:16;41.43;;;38.07;;
7833;SDS011;3962;42.696;23.354;2023-12-20T02:14:43;41.67;;;38.88;;
7833;SDS011;3962;42.696;23.354;2023-12-20T02:17:10;38.45;;;36.33;;
7833;SDS011;3962;42.696;23.354;2023-12-20T02:19:38;40.75;;;38.30;;
7833;SDS011;3962;42.696;23.354;2023-12-20T02:22:07;39.78;;;37.40;;
7833;SDS011;3962;42.696;23.354;2023-12-20T02:24:35;36.40;;;34.30;;
7833;SDS011;3962;42.696;23.354;2023-12-20T02:27:02;39.90;;;37.67;;
7833;SDS011;3962;42.696;23.354;2023-12-20T02:29:29;37.10;;;34.90;;
7833;SDS011;3962;42.696;23.354;2023-12-20T02:31:57;38.80;;;36.13;;
7833;SDS011;3962;42.696;23.354;2023-12-20T02:34:24;38.57;;;36.07;;
7833;SDS011;3962;42.696;23.354;2023-12-20T02:36:50;40.33;;;37.83;;
7833;SDS011;3962;42.696;23.354;2023-12-20T02:39:19;39.03;;;36.33;;
7833;SDS011;3962;42.696;23.354;2023-12-20T02:41:46;36.97;;;34.53;;
7833;SDS011;3962;42.696;23.354;2023-12-20T02:44:13;37.10;;;35.03;;
7833;SDS011;3962;42.696;23.354;2023-12-20T02:46:40;38.27;;;35.70;;
7833;SDS011;3962;42.696;23.354;2023-12-20T02:49:07;37.83;;;35.40;;
7833;SDS011;3962;42.696;23.354;2023-12-20T02:51:34;36.63;;;34.37;;
7833;SDS011;3962;42.696;23.354;2023-12-20T02:54:03;42.60;;;39.17;;
7833;SDS011;3962;42.696;23.354;2023-12-20T02:56:32;40.73;;;37.70;;
7833;SDS011;3962;42.696;23.354;2023-12-20T02:58:59;39.53;;;37.10;;
7833;SDS011;3962;42.696;23.354;2023-12-20T03:01:26;40.15;;;36.92;;
7833;SDS011;3962;42.696;23.354;2023-12-20T03:03:53;38.03;;;35.53;;
7833;SDS011;3962;42.696;23.354;2023-12-20T03:06:19;37.87;;;35.43;;
7833;SDS011;3962;42.696;23.354;2023-12-20T03:08:47;44.87;;;41.33;;
7833;SDS011;3962;42.696;23.354;2023-12-20T03:11:13;45.43;;;41.80;;
7833;SDS011;3962;42.696;23.354;2023-12-20T03:13:42;47.93;;;43.60;;
7833;SDS011;3962;42.696;23.354;2023-12-20T03:16:08;41.53;;;38.43;;
7833;SDS011;3962;42.696;23.354;2023-12-20T03:18:36;42.42;;;38.83;;
7833;SDS011;3962;42.696;23.354;2023-12-20T03:21:03;35.80;;;33.60;;
7833;SDS011;3962;42.696;23.354;2023-12-20T03:23:30;40.47;;;37.47;;
7833;SDS011;3962;42.696;23.354;2023-12-20T03:25:58;38.70;;;36.03;;
7833;SDS011;3962;42.696;23.354;2023-12-20T03:28:26;36.93;;;34.43;;
7833;SDS011;3962;42.696;23.354;2023-12-20T03:30:54;36.17;;;33.70;;
7833;SDS011;3962;42.696;23.354;2023-12-20T03:33:21;38.53;;;35.58;;
7833;SDS011;3962;42.696;23.354;2023-12-20T03:35:48;37.33;;;34.10;;
7833;SDS011;3962;42.696;23.354;2023-12-20T03:38:15;36.60;;;33.90;;
7833;SDS011;3962;42.696;23.354;2023-12-20T03:40:42;36.80;;;33.87;;
7833;SDS011;3962;42.696;23.354;2023-12-20T03:43:09;32.93;;;31.03;;
7833;SDS011;3962;42.696;23.354;2023-12-20T03:45:36;32.67;;;30.67;;
7833;SDS011;3962;42.696;23.354;2023-12-20T03:48:04;35.87;;;33.57;;
7833;SDS011;3962;42.696;23.354;2023-12-20T03:50:32;35.50;;;33.20;;
7833;SDS011;3962;42.696;23.354;2023-12-20T03:52:58;34.93;;;32.70;;
7833;SDS011;3962;42.696;23.354;2023-12-20T03:55:25;38.60;;;35.80;;
7833;SDS011;3962;42.696;23.354;2023-12-20T03:57:52;36.40;;;34.00;;
7833;SDS011;3962;42.696;23.354;2023-12-20T04:00:19;36.33;;;33.93;;
7833;SDS011;3962;42.696;23.354;2023-12-20T04:02:46;33.97;;;31.63;;
7833;SDS011;3962;42.696;23.354;2023-12-20T04:05:14;38.00;;;35.47;;
7833;SDS011;3962;42.696;23.354;2023-12-20T04:07:41;34.77;;;32.40;;
7833;SDS011;3962;42.696;23.354;2023-12-20T04:10:08;37.57;;;35.00;;
7833;SDS011;3962;42.696;23.354;2023-12-20T04:12:35;35.30;;;32.77;;
7833;SDS011;3962;42.696;23.354;2023-12-20T04:15:02;34.30;;;31.47;;
7833;SDS011;3962;42.696;23.354;2023-12-20T04:17:34;35.90;;;33.30;;
7833;SDS011;3962;42.696;23.354;2023-12-20T04:20:01;35.27;;;33.17;;
7833;SDS011;3962;42.696;23.354;2023-12-20T04:22:29;33.80;;;31.57;;
7833;SDS011;3962;42.696;23.354;2023-12-20T04:24:56;37.70;;;34.77;;
7833;SDS011;3962;42.696;23.354;2023-12-20T04:27:23;39.13;;;36.03;;
7833;SDS011;3962;42.696;23.354;2023-12-20T04:29:50;36.53;;;34.03;;
7833;SDS011;3962;42.696;23.354;2023-12-20T04:32:17;35.72;;;33.38;;
7833;SDS011;3962;42.696;23.354;2023-12-20T04:34:43;35.47;;;32.85;;
7833;SDS011;3962;42.696;23.354;2023-12-20T04:37:10;38.42;;;35.85;;
7833;SDS011;3962;42.696;23.354;2023-12-20T04:39:39;40.67;;;38.03;;
7833;SDS011;3962;42.696;23.354;2023-12-20T04:42:06;43.70;;;40.50;;
7833;SDS011;3962;42.696;23.354;2023-12-20T04:44:33;42.50;;;39.80;;
7833;SDS011;3962;42.696;23.354;2023-12-20T04:47:00;44.10;;;40.33;;
7833;SDS011;3962;42.696;23.354;2023-12-20T04:49:27;39.90;;;37.20;;
7833;SDS011;3962;42.696;23.354;2023-12-20T04:51:54;46.10;;;42.13;;
7833;SDS011;3962;42.696;23.354;2023-12-20T04:54:21;42.90;;;40.10;;
7833;SDS011;3962;42.696;23.354;2023-12-20T04:56:49;42.88;;;40.03;;
7833;SDS011;3962;42.696;23.354;2023-12-20T04:59:16;43.83;;;40.35;;
7833;SDS011;3962;42.696;23.354;2023-12-20T05:01:42;40.17;;;37.22;;
7833;SDS011;3962;42.696;23.354;2023-12-20T05:04:09;42.38;;;39.20;;
7833;SDS011;3962;42.696;23.354;2023-12-20T05:06:36;45.50;;;41.92;;
7833;SDS011;3962;42.696;23.354;2023-12-20T05:09:03;39.90;;;37.30;;
7833;SDS011;3962;42.696;23.354;2023-12-20T05:11:30;36.17;;;33.63;;
7833;SDS011;3962;42.696;23.354;2023-12-20T05:13:58;35.53;;;33.47;;
7833;SDS011;3962;42.696;23.354;2023-12-20T05:16:25;36.88;;;34.67;;
7833;SDS011;3962;42.696;23.354;2023-12-20T05:18:52;34.50;;;32.63;;
7833;SDS011;3962;42.696;23.354;2023-12-20T05:21:19;37.75;;;34.65;;
7833;SDS011;3962;42.696;23.354;2023-12-20T05:23:46;39.85;;;36.53;;
7833;SDS011;3962;42.696;23.354;2023-12-20T05:26:13;39.55;;;35.70;;
7833;SDS011;3962;42.696;23.354;2023-12-20T05:28:40;43.38;;;38.90;;
7833;SDS011;3962;42.696;23.354;2023-12-20T05:31:11;33.53;;;31.33;;
7833;SDS011;3962;42.696;23.354;2023-12-20T05:33:37;35.40;;;32.90;;
7833;SDS011;3962;42.696;23.354;2023-12-20T05:36:05;30.70;;;29.15;;
7833;SDS011;3962;42.696;23.354;2023-12-20T05:38:36;32.03;;;30.17;;
7833;SDS011;3962;42.696;23.354;2023-12-20T05:41:03;32.15;;;30.40;;
7833;SDS011;3962;42.696;23.354;2023-12-20T05:43:30;36.70;;;33.60;;
7833;SDS011;3962;42.696;23.354;2023-12-20T05:45:57;36.65;;;33.65;;
7833;SDS011;3962;42.696;23.354;2023-12-20T05:48:25;31.05;;;28.92;;
7833;SDS011;3962;42.696;23.354;2023-12-20T05:50:52;33.10;;;30.98;;
7833;SDS011;3962;42.696;23.354;2023-12-20T05:53:19;33.95;;;32.05;;
7833;SDS011;3962;42.696;23.354;2023-12-20T05:55:47;31.23;;;29.63;;
7833;SDS011;3962;42.696;23.354;2023-12-20T05:58:14;28.92;;;27.52;;
7833;SDS011;3962;42.696;23.354;2023-12-20T06:00:41;31.45;;;29.83;;
7833;SDS011;3962;42.696;23.354;2023-12-20T06:03:08;32.65;;;30.77;;
7833;SDS011;3962;42.696;23.354;2023-12-20T06:05:38;28.17;;;26.77;;
7833;SDS011;3962;42.696;23.354;2023-12-20T06:08:05;30.60;;;29.02;;
7833;SDS011;3962;42.696;23.354;2023-12-20T06:10:32;30.83;;;29.23;;
7833;SDS011;3962;42.696;23.354;2023-12-20T06:12:59;29.73;;;28.17;;
7833;SDS011;3962;42.696;23.354;2023-12-20T06:15:27;28.30;;;26.90;;
7833;SDS011;3962;42.696;23.354;2023-12-20T06:17:53;28.27;;;26.97;;
7833;SDS011;3962;42.696;23.354;2023-12-20T06:20:20;29.57;;;27.97;;
7833;SDS011;3962;42.696;23.354;2023-12-20T06:22:49;32.13;;;30.53;;
7833;SDS011;3962;42.696;23.354;2023-12-20T06:25:16;31.17;;;29.67;;
7833;SDS011;3962;42.696;23.354;2023-12-20T06:27:43;32.87;;;31.10;;
7833;SDS011;3962;42.696;23.354;2023-12-20T06:30:11;30.27;;;28.67;;
7833;SDS011;3962;42.696;23.354;2023-12-20T06:32:39;32.13;;;30.33;;
7833;SDS011;3962;42.696;23.354;2023-12-20T06:35:08;31.93;;;30.40;;
7833;SDS011;3962;42.696;23.354;2023-12-20T06:37:35;30.52;;;29.02;;
7833;SDS011;3962;42.696;23.354;2023-12-20T06:40:09;34.03;;;32.13;;
7833;SDS011;3962;42.696;23.354;2023-12-20T06:42:37;28.90;;;27.60;;
7833;SDS011;3962;42.696;23.354;2023-12-20T06:45:05;29.93;;;28.40;;
7833;SDS011;3962;42.696;23.354;2023-12-20T06:47:32;28.07;;;26.77;;
7833;SDS011;3962;42.696;23.354;2023-12-20T06:49:59;29.30;;;27.70;;
7833;SDS011;3962;42.696;23.354;2023-12-20T06:52:27;30.93;;;29.37;;
7833;SDS011;3962;42.696;23.354;2023-12-20T06:54:55;29.57;;;28.17;;
7833;SDS011;3962;42.696;23.354;2023-12-20T06:57:26;26.77;;;25.53;;
7833;SDS011;3962;42.696;23.354;2023-12-20T06:59:56;27.17;;;25.90;;
7833;SDS011;3962;42.696;23.354;2023-12-20T07:02:25;28.17;;;26.87;;
7833;SDS011;3962;42.696;23.354;2023-12-20T07:04:56;26.80;;;25.57;;
7833;SDS011;3962;42.696;23.354;2023-12-20T07:07:23;29.33;;;27.93;;
7833;SDS011;3962;42.696;23.354;2023-12-20T07:09:51;27.37;;;26.07;;
7833;SDS011;3962;42.696;23.354;2023-12-20T07:12:18;25.87;;;24.67;;
7833;SDS011;3962;42.696;23.354;2023-12-20T07:14:47;27.40;;;26.10;;
7833;SDS011;3962;42.696;23.354;2023-12-20T07:17:15;27.57;;;26.27;;
7833;SDS011;3962;42.696;23.354;2023-12-20T07:19:42;25.93;;;24.73;;
7833;SDS011;3962;42.696;23.354;2023-12-20T07:22:09;27.53;;;26.23;;
7833;SDS011;3962;42.696;23.354;2023-12-20T07:24:36;26.43;;;25.23;;
7833;SDS011;3962;42.696;23.354;2023-12-20T07:27:03;25.93;;;24.73;;
7833;SDS011;3962;42.696;23.354;2023-12-20T07:29:30;28.73;;;27.33;;
7833;SDS011;3962;42.696;23.354;2023-12-20T07:32:02;26.57;;;25.37;;
7833;SDS011;3962;42.696;23.354;2023-12-20T07:34:29;27.80;;;26.50;;
7833;SDS011;3962;42.696;23.354;2023-12-20T07:36:57;27.63;;;26.33;;
7833;SDS011;3962;42.696;23.354;2023-12-20T07:39:24;26.63;;;25.43;;
7833;SDS011;3962;42.696;23.354;2023-12-20T07:41:51;27.20;;;25.90;;
7833;SDS011;3962;42.696;23.354;2023-12-20T07:44:21;26.90;;;25.70;;
7833;SDS011;3962;42.696;23.354;2023-12-20T07:46:48;28.10;;;26.77;;
7833;SDS011;3962;42.696;23.354;2023-12-20T07:49:16;26.73;;;25.53;;
7833;SDS011;3962;42.696;23.354;2023-12-20T07:51:49;27.70;;;26.40;;
7833;SDS011;3962;42.696;23.354;2023-12-20T07:54:16;28.17;;;26.87;;
7833;SDS011;3962;42.696;23.354;2023-12-20T07:56:43;27.57;;;26.27;;
7833;SDS011;3962;42.696;23.354;2023-12-20T07:59:10;29.17;;;27.77;;
7833;SDS011;3962;42.696;23.354;2023-12-20T08:01:37;28.20;;;26.80;;
7833;SDS011;3962;42.696;23.354;2023-12-20T08:04:05;26.30;;;25.10;;
7833;SDS011;3962;42.696;23.354;2023-12-20T08:06:34;26.07;;;24.87;;
7833;SDS011;3962;42.696;23.354;2023-12-20T08:09:01;29.13;;;27.73;;
7833;SDS011;3962;42.696;23.354;2023-12-20T08:11:29;27.63;;;26.33;;
7833;SDS011;3962;42.696;23.354;2023-12-20T08:13:57;26.40;;;25.20;;
7833;SDS011;3962;42.696;23.354;2023-12-20T08:16:24;27.10;;;25.80;;
7833;SDS011;3962;42.696;23.354;2023-12-20T08:18:51;27.93;;;26.60;;
7833;SDS011;3962;42.696;23.354;2023-12-20T08:21:21;27.80;;;26.50;;
7833;SDS011;3962;42.696;23.354;2023-12-20T08:23:49;28.03;;;26.63;;
7833;SDS011;3962;42.696;23.354;2023-12-20T08:26:18;28.87;;;27.53;;
7833;SDS011;3962;42.696;23.354;2023-12-20T08:28:47;28.00;;;26.70;;
7833;SDS011;3962;42.696;23.354;2023-12-20T08:31:14;27.60;;;26.30;;
7833;SDS011;3962;42.696;23.354;2023-12-20T08:33:43;28.87;;;27.40;;
7833;SDS011;3962;42.696;23.354;2023-12-20T08:36:10;29.00;;;27.60;;
7833;SDS011;3962;42.696;23.354;2023-12-20T08:38:37;28.33;;;27.00;;
7833;SDS011;3962;42.696;23.354;2023-12-20T08:41:06;28.93;;;27.53;;
7833;SDS011;3962;42.696;23.354;2023-12-20T08:43:33;30.80;;;29.27;;
7833;SDS011;3962;42.696;23.354;2023-12-20T08:46:01;27.77;;;26.43;;
7833;SDS011;3962;42.696;23.354;2023-12-20T08:48:28;29.33;;;27.93;;
7833;SDS011;3962;42.696;23.354;2023-12-20T08:50:55;30.43;;;28.93;;
7833;SDS011;3962;42.696;23.354;2023-12-20T08:53:22;28.07;;;26.67;;
7833;SDS011;3962;42.696;23.354;2023-12-20T08:55:50;28.63;;;27.13;;
7833;SDS011;3962;42.696;23.354;2023-12-20T08:58:19;26.47;;;25.20;;
7833;SDS011;3962;42.696;23.354;2023-12-20T09:00:48;29.87;;;28.37;;
7833;SDS011;3962;42.696;23.354;2023-12-20T09:03:15;28.93;;;27.50;;
7833;SDS011;3962;42.696;23.354;2023-12-20T09:05:42;28.80;;;27.40;;
7833;SDS011;3962;42.696;23.354;2023-12-20T09:08:09;28.67;;;27.27;;
7833;SDS011;3962;42.696;23.354;2023-12-20T09:10:36;31.53;;;30.00;;
7833;SDS011;3962;42.696;23.354;2023-12-20T09:13:04;28.87;;;27.47;;
7833;SDS011;3962;42.696;23.354;2023-12-20T09:15:32;29.07;;;27.67;;
7833;SDS011;3962;42.696;23.354;2023-12-20T09:18:00;29.00;;;27.50;;
7833;SDS011;3962;42.696;23.354;2023-12-20T09:20:28;29.53;;;28.03;;
7833;SDS011;3962;42.696;23.354;2023-12-20T09:22:58;30.50;;;29.00;;
7833;SDS011;3962;42.696;23.354;2023-12-20T09:25:26;28.97;;;27.47;;
7833;SDS011;3962;42.696;23.354;2023-12-20T09:27:55;27.17;;;25.87;;
7833;SDS011;3962;42.696;23.354;2023-12-20T09:30:23;28.37;;;26.97;;
7833;SDS011;3962;42.696;23.354;2023-12-20T09:32:52;28.70;;;27.33;;
7833;SDS011;3962;42.696;23.354;2023-12-20T09:35:20;30.77;;;29.23;;
7833;SDS011;3962;42.696;23.354;2023-12-20T09:37:49;29.67;;;28.27;;
7833;SDS011;3962;42.696;23.354;2023-12-20T09:40:17;30.47;;;28.97;;
7833;SDS011;3962;42.696;23.354;2023-12-20T09:42:47;27.97;;;26.57;;
7833;SDS011;3962;42.696;23.354;2023-12-20T09:45:19;28.10;;;26.70;;
7833;SDS011;3962;42.696;23.354;2023-12-20T09:47:48;28.10;;;26.70;;
7833;SDS011;3962;42.696;23.354;2023-12-20T09:50:17;30.23;;;28.73;;
7833;SDS011;3962;42.696;23.354;2023-12-20T09:52:46;29.70;;;28.20;;
7833;SDS011;3962;42.696;23.354;2023-12-20T09:55:17;30.50;;;29.00;;
7833;SDS011;3962;42.696;23.354;2023-12-20T09:57:44;29.50;;;28.00;;
7833;SDS011;3962;42.696;23.354;2023-12-20T10:00:12;29.40;;;27.93;;
7833;SDS011;3962;42.696;23.354;2023-12-20T10:02:42;28.10;;;26.70;;
7833;SDS011;3962;42.696;23.354;2023-12-20T10:05:17;29.40;;;27.90;;
7833;SDS011;3962;42.696;23.354;2023-12-20T10:07:52;30.77;;;29.27;;
7833;SDS011;3962;42.696;23.354;2023-12-20T10:10:19;28.60;;;27.20;;
7833;SDS011;3962;42.696;23.354;2023-12-20T10:13:00;28.30;;;26.80;;
7833;SDS011;3962;42.696;23.354;2023-12-20T10:15:29;28.53;;;27.13;;
7833;SDS011;3962;42.696;23.354;2023-12-20T10:17:57;27.87;;;26.47;;
7833;SDS011;3962;42.696;23.354;2023-12-20T10:20:26;28.47;;;27.07;;
7833;SDS011;3962;42.696;23.354;2023-12-20T10:22:54;28.83;;;27.43;;
7833;SDS011;3962;42.696;23.354;2023-12-20T10:25:21;28.60;;;27.20;;
7833;SDS011;3962;42.696;23.354;2023-12-20T10:27:49;26.67;;;25.37;;
7833;SDS011;3962;42.696;23.354;2023-12-20T10:30:16;28.10;;;26.70;;
7833;SDS011;3962;42.696;23.354;2023-12-20T10:32:43;28.57;;;27.17;;
7833;SDS011;3962;42.696;23.354;2023-12-20T10:35:13;27.80;;;26.40;;
7833;SDS011;3962;42.696;23.354;2023-12-20T10:37:41;26.60;;;25.30;;
7833;SDS011;3962;42.696;23.354;2023-12-20T10:40:09;29.80;;;28.30;;
7833;SDS011;3962;42.696;23.354;2023-12-20T10:42:36;26.70;;;25.40;;
7833;SDS011;3962;42.696;23.354;2023-12-20T10:45:08;28.83;;;27.33;;
7833;SDS011;3962;42.696;23.354;2023-12-20T10:47:35;26.47;;;25.17;;
7833;SDS011;3962;42.696;23.354;2023-12-20T10:50:04;29.20;;;27.70;;
7833;SDS011;3962;42.696;23.354;2023-12-20T10:52:33;27.77;;;26.47;;
7833;SDS011;3962;42.696;23.354;2023-12-20T10:55:04;28.73;;;27.33;;
7833;SDS011;3962;42.696;23.354;2023-12-20T10:57:31;29.10;;;27.67;;
7833;SDS011;3962;42.696;23.354;2023-12-20T11:00:01;28.57;;;27.17;;
7833;SDS011;3962;42.696;23.354;2023-12-20T11:02:31;29.23;;;27.73;;
7833;SDS011;3962;42.696;23.354;2023-12-20T11:05:00;30.30;;;28.80;;
7833;SDS011;3962;42.696;23.354;2023-12-20T11:07:38;31.10;;;29.50;;
7833;SDS011;3962;42.696;23.354;2023-12-20T11:10:16;29.30;;;27.83;;
7833;SDS011;3962;42.696;23.354;2023-12-20T11:12:48;27.50;;;26.17;;
7833;SDS011;3962;42.696;23.354;2023-12-20T11:15:20;28.57;;;27.17;;
7833;SDS011;3962;42.696;23.354;2023-12-20T11:17:54;27.90;;;26.53;;
7833;SDS011;3962;42.696;23.354;2023-12-20T11:20:22;31.57;;;30.07;;
7833;SDS011;3962;42.696;23.354;2023-12-20T11:22:53;28.73;;;27.33;;
7833;SDS011;3962;42.696;23.354;2023-12-20T11:25:22;29.63;;;28.23;;
7833;SDS011;3962;42.696;23.354;2023-12-20T11:28:08;30.57;;;29.00;;
7833;SDS011;3962;42.696;23.354;2023-12-20T11:30:42;29.50;;;28.10;;
7833;SDS011;3962;42.696;23.354;2023-12-20T11:33:13;29.40;;;28.00;;
7833;SDS011;3962;42.696;23.354;2023-12-20T11:35:40;28.83;;;27.37;;
7833;SDS011;3962;42.696;23.354;2023-12-20T11:38:07;31.17;;;29.57;;
7833;SDS011;3962;42.696;23.354;2023-12-20T11:40:36;30.40;;;29.00;;
7833;SDS011;3962;42.696;23.354;2023-12-20T11:43:04;28.20;;;26.83;;
7833;SDS011;3962;42.696;23.354;2023-12-20T11:45:31;28.97;;;27.57;;
7833;SDS011;3962;42.696;23.354;2023-12-20T11:48:00;28.33;;;27.03;;
7833;SDS011;3962;42.696;23.354;2023-12-20T11:50:28;28.33;;;26.97;;
7833;SDS011;3962;42.696;23.354;2023-12-20T11:52:57;28.77;;;27.37;;
7833;SDS011;3962;42.696;23.354;2023-12-20T11:55:24;29.47;;;27.97;;
7833;SDS011;3962;42.696;23.354;2023-12-20T11:57:52;29.77;;;28.37;;
7833;SDS011;3962;42.696;23.354;2023-12-20T12:00:19;28.17;;;26.77;;
7833;SDS011;3962;42.696;23.354;2023-12-20T12:02:56;31.90;;;30.27;;
7833;SDS011;3962;42.696;23.354;2023-12-20T12:05:24;29.77;;;28.27;;
7833;SDS011;3962;42.696;23.354;2023-12-20T12:07:51;29.93;;;28.47;;
7833;SDS011;3962;42.696;23.354;2023-12-20T12:10:17;28.67;;;27.27;;
7833;SDS011;3962;42.696;23.354;2023-12-20T12:12:44;30.10;;;28.60;;
7833;SDS011;3962;42.696;23.354;2023-12-20T12:15:15;29.63;;;28.13;;
7833;SDS011;3962;42.696;23.354;2023-12-20T12:17:43;30.57;;;29.03;;
7833;SDS011;3962;42.696;23.354;2023-12-20T12:20:10;31.07;;;29.27;;
7833;SDS011;3962;42.696;23.354;2023-12-20T12:22:37;32.60;;;30.77;;
7833;SDS011;3962;42.696;23.354;2023-12-20T12:25:10;31.20;;;29.60;;
7833;SDS011;3962;42.696;23.354;2023-12-20T12:27:39;33.20;;;31.40;;
7833;SDS011;3962;42.696;23.354;2023-12-20T12:30:08;31.30;;;29.70;;
7833;SDS011;3962;42.696;23.354;2023-12-20T12:32:39;31.67;;;30.07;;
7833;SDS011;3962;42.696;23.354;2023-12-20T12:35:07;31.63;;;29.93;;
7833;SDS011;3962;42.696;23.354;2023-12-20T12:37:35;32.50;;;30.90;;
7833;SDS011;3962;42.696;23.354;2023-12-20T12:40:05;33.77;;;32.07;;
7833;SDS011;3962;42.696;23.354;2023-12-20T12:42:35;31.40;;;29.70;;
7833;SDS011;3962;42.696;23.354;2023-12-20T12:45:03;31.53;;;29.93;;
7833;SDS011;3962;42.696;23.354;2023-12-20T12:47:31;30.27;;;28.70;;
7833;SDS011;3962;42.696;23.354;2023-12-20T12:50:02;34.17;;;32.33;;
7833;SDS011;3962;42.696;23.354;2023-12-20T12:52:30;35.13;;;33.03;;
7833;SDS011;3962;42.696;23.354;2023-12-20T12:54:57;32.03;;;30.33;;
7833;SDS011;3962;42.696;23.354;2023-12-20T12:57:24;29.27;;;27.80;;
7833;SDS011;3962;42.696;23.354;2023-12-20T12:59:51;30.77;;;29.17;;
7833;SDS011;3962;42.696;23.354;2023-12-20T13:02:19;31.07;;;29.53;;
7833;SDS011;3962;42.696;23.354;2023-12-20T13:04:46;29.33;;;27.93;;
7833;SDS011;3962;42.696;23.354;2023-12-20T13:07:14;27.97;;;26.63;;
7833;SDS011;3962;42.696;23.354;2023-12-20T13:09:41;28.23;;;26.87;;
7833;SDS011;3962;42.696;23.354;2023-12-20T13:12:08;27.90;;;26.60;;
7833;SDS011;3962;42.696;23.354;2023-12-20T13:14:35;28.63;;;27.23;;
7833;SDS011;3962;42.696;23.354;2023-12-20T13:17:03;28.80;;;27.40;;
7833;SDS011;3962;42.696;23.354;2023-12-20T13:19:31;28.20;;;26.90;;
7833;SDS011;3962;42.696;23.354;2023-12-20T13:21:58;29.17;;;27.73;;
7833;SDS011;3962;42.696;23.354;2023-12-20T13:24:27;30.40;;;28.80;;
7833;SDS011;3962;42.696;23.354;2023-12-20T13:26:54;29.17;;;27.77;;
7833;SDS011;3962;42.696;23.354;2023-12-20T13:29:21;30.17;;;28.67;;
7833;SDS011;3962;42.696;23.354;2023-12-20T13:31:49;29.87;;;28.27;;
7833;SDS011;3962;42.696;23.354;2023-12-20T13:34:16;34.73;;;32.93;;
7833;SDS011;3962;42.696;23.354;2023-12-20T13:36:43;33.00;;;30.67;;
7833;SDS011;3962;42.696;23.354;2023-12-20T13:39:12;32.63;;;31.00;;
7833;SDS011;3962;42.696;23.354;2023-12-20T13:41:41;34.57;;;32.57;;
7833;SDS011;3962;42.696;23.354;2023-12-20T13:44:08;33.67;;;31.80;;
7833;SDS011;3962;42.696;23.354;2023-12-20T13:46:35;31.93;;;30.13;;
7833;SDS011;3962;42.696;23.354;2023-12-20T13:49:02;32.23;;;30.33;;
7833;SDS011;3962;42.696;23.354;2023-12-20T13:51:33;31.53;;;29.83;;
7833;SDS011;3962;42.696;23.354;2023-12-20T13:54:01;29.80;;;28.23;;
7833;SDS011;3962;42.696;23.354;2023-12-20T13:56:27;30.97;;;29.17;;
7833;SDS011;3962;42.696;23.354;2023-12-20T13:58:56;35.37;;;32.57;;
7833;SDS011;3962;42.696;23.354;2023-12-20T14:01:23;28.27;;;26.77;;
7833;SDS011;3962;42.696;23.354;2023-12-20T14:03:50;32.80;;;30.70;;
7833;SDS011;3962;42.696;23.354;2023-12-20T14:06:17;29.53;;;27.93;;
7833;SDS011;3962;42.696;23.354;2023-12-20T14:08:44;29.30;;;27.80;;
7833;SDS011;3962;42.696;23.354;2023-12-20T14:11:11;29.13;;;27.63;;
7833;SDS011;3962;42.696;23.354;2023-12-20T14:13:40;30.63;;;29.03;;
7833;SDS011;3962;42.696;23.354;2023-12-20T14:16:09;28.83;;;27.43;;
7833;SDS011;3962;42.696;23.354;2023-12-20T14:18:37;27.23;;;25.87;;
7833;SDS011;3962;42.696;23.354;2023-12-20T14:21:05;30.10;;;28.20;;
7833;SDS011;3962;42.696;23.354;2023-12-20T14:23:32;29.63;;;28.13;;
7833;SDS011;3962;42.696;23.354;2023-12-20T14:25:59;29.73;;;28.33;;
7833;SDS011;3962;42.696;23.354;2023-12-20T14:28:27;28.13;;;26.63;;
7833;SDS011;3962;42.696;23.354;2023-12-20T14:30:54;29.70;;;28.17;;
7833;SDS011;3962;42.696;23.354;2023-12-20T14:33:23;30.17;;;28.67;;
7833;SDS011;3962;42.696;23.354;2023-12-20T14:35:50;31.73;;;30.13;;
7833;SDS011;3962;42.696;23.354;2023-12-20T14:38:17;30.80;;;29.30;;